Time;durP1;ratioP1;P1;durP2;ratioP2;P2;SDS_P1;SDS_P2;PMS_P1;PMS_P2;Temp;Humidity;BMP_temperature;BMP_pressure;BME280_temperature;BME280_humidity;BME280_pressure;Samples;Min_cycle;Max_cycle;Signal;HPM_P1;HPM_P2
2022/05/07 00:02:10;;;;;;;15.70;12.60;;;;;;;16.56;82.04;100789.22;5047393;28;20037;-66
2022/05/07 00:04:37;;;;;;;14.75;13.02;;;;;;;16.53;81.96;100778.72;5047536;28;20128;-66
2022/05/07 00:07:04;;;;;;;13.93;12.13;;;;;;;16.53;81.57;100784.13;5046673;28;20024;-66
2022/05/07 00:09:30;;;;;;;14.18;12.55;;;;;;;16.51;81.35;100780.75;5066391;28;20050;-66
2022/05/07 00:11:56;;;;;;;15.05;12.20;;;;;;;16.50;81.69;100779.03;5067340;28;20032;-65
2022/05/07 00:14:21;;;;;;;16.50;11.93;;;;;;;16.46;81.58;100772.25;5067746;28;20516;-66
2022/05/07 00:19:32;;;;;;;15.30;11.57;;;;;;;16.52;80.68;100775.16;5067126;28;20082;-65
2022/05/07 00:21:58;;;;;;;16.13;12.68;;;;;;;16.53;80.24;100770.56;5066082;28;20060;-68
2022/05/07 00:24:24;;;;;;;13.57;10.35;;;;;;;16.54;80.01;100773.13;5058752;28;20128;-68
2022/05/07 00:26:50;;;;;;;12.38;11.18;;;;;;;16.55;79.11;100776.69;5052755;28;20472;-68
2022/05/07 00:29:15;;;;;;;13.10;11.57;;;;;;;16.56;79.65;100778.38;5053450;28;20104;-68
2022/05/07 00:31:41;;;;;;;13.60;11.02;;;;;;;16.53;79.70;100767.88;5056770;28;20039;-68
2022/05/07 00:34:06;;;;;;;12.57;11.32;;;;;;;16.59;78.99;100778.06;5066160;28;20425;-66
2022/05/07 00:36:32;;;;;;;11.88;10.68;;;;;;;16.61;78.90;100776.88;5066188;28;20105;-66
2022/05/07 00:38:58;;;;;;;12.27;10.50;;;;;;;16.61;78.64;100768.75;5065794;28;20025;-67
2022/05/07 00:41:23;;;;;;;13.38;10.35;;;;;;;16.54;79.08;100758.75;5060208;28;20025;-67
2022/05/07 00:43:49;;;;;;;13.15;10.85;;;;;;;16.62;79.18;100772.31;5061374;28;20036;-67
2022/05/07 00:46:15;;;;;;;14.48;11.75;;;;;;;16.60;80.16;100769.78;5066297;28;20042;-67
2022/05/07 00:48:41;;;;;;;13.23;11.40;;;;;;;16.60;80.58;100771.66;5065995;28;20039;-67
2022/05/07 00:53:51;;;;;;;13.55;11.32;;;;;;;16.58;80.52;100779.09;5068958;28;20079;-68
2022/05/07 00:56:17;;;;;;;16.80;12.15;;;;;;;16.56;80.72;100772.97;5069971;28;20470;-67
2022/05/07 00:58:43;;;;;;;12.15;10.85;;;;;;;16.55;80.54;100772.13;5053681;28;20027;-67
2022/05/07 01:01:08;;;;;;;13.32;11.88;;;;;;;16.50;81.30;100763.63;5060012;28;20103;-66
2022/05/07 01:03:35;;;;;;;17.45;13.07;;;;;;;16.44;81.35;100747.19;5069815;28;20157;-67
2022/05/07 01:06:01;;;;;;;19.58;11.80;;;;;;;16.50;82.08;100765.47;5069302;28;20029;-67
2022/05/07 01:08:29;;;;;;;16.52;12.55;;;;;;;16.48;81.99;100759.41;5057475;28;20391;-64
2022/05/07 01:10:56;;;;;;;15.90;11.55;;;;;;;16.41;82.26;100756.44;5069760;28;20055;-64
2022/05/07 01:13:22;;;;;;;12.75;11.30;;;;;;;16.44;82.09;100764.28;5069648;28;20071;-64
2022/05/07 01:15:55;;;;;;;14.63;11.45;;;;;;;16.43;82.22;100757.19;5069305;28;20056;-64
2022/05/07 01:18:21;;;;;;;13.38;11.50;;;;;;;16.34;82.58;100746.44;5069435;28;20029;-64
2022/05/07 01:20:46;;;;;;;17.63;11.98;;;;;;;16.39;82.49;100754.91;5069197;28;20089;-64
2022/05/07 01:23:12;;;;;;;13.88;12.05;;;;;;;16.25;83.09;100736.56;5069591;28;20028;-64
2022/05/07 01:25:38;;;;;;;15.38;12.27;;;;;;;16.27;82.75;100751.63;5055686;28;20120;-64
2022/05/07 01:28:04;;;;;;;17.10;12.80;;;;;;;16.30;83.75;100756.72;5049309;28;20029;-64
2022/05/07 01:30:29;;;;;;;17.63;12.15;;;;;;;16.19;83.51;100745.34;5049219;28;20024;-64
2022/05/07 01:32:55;;;;;;;12.80;11.52;;;;;;;16.25;83.77;100753.66;5049160;28;20106;-64
2022/05/07 01:35:20;;;;;;;13.07;11.77;;;;;;;16.20;84.34;100745.16;5049362;28;20090;-64
2022/05/07 01:37:45;;;;;;;17.60;12.25;;;;;;;16.22;84.70;100758.53;5048911;28;20040;-64
2022/05/07 01:40:11;;;;;;;19.58;13.77;;;;;;;16.20;84.96;100747.88;5049187;28;20070;-64
2022/05/07 01:42:37;;;;;;;16.52;12.85;;;;;;;16.17;85.13;100755.47;5049288;28;20107;-64
2022/05/07 01:45:03;;;;;;;14.77;13.18;;;;;;;16.16;84.93;100748.34;5048654;28;20029;-64
2022/05/07 01:50:13;;;;;;;14.48;13.07;;;;;;;16.08;85.98;100742.88;5049436;28;20032;-64
2022/05/07 01:52:38;;;;;;;14.80;13.13;;;;;;;16.08;86.18;100749.16;5048953;28;20037;-64
2022/05/07 01:55:04;;;;;;;14.73;13.20;;;;;;;15.97;85.97;100729.63;5049943;28;20029;-64
2022/05/07 01:57:30;;;;;;;16.40;13.25;;;;;;;16.06;86.07;100742.22;5069880;28;20036;-67
2022/05/07 01:59:56;;;;;;;15.38;13.45;;;;;;;16.03;86.08;100747.94;5069750;28;20024;-67
2022/05/07 02:02:21;;;;;;;15.05;13.55;;;;;;;16.00;86.24;100742.84;5060698;28;20039;-67
2022/05/07 02:04:47;;;;;;;16.25;13.27;;;;;;;16.00;85.64;100742.84;5050765;28;20068;-67
2022/05/07 02:07:12;;;;;;;15.10;13.30;;;;;;;16.00;85.71;100738.28;5049610;28;20566;-67
2022/05/07 02:09:38;;;;;;;18.13;12.98;;;;;;;15.98;85.45;100734.03;5049511;28;20033;-67
2022/05/07 02:12:04;;;;;;;15.18;13.57;;;;;;;16.01;85.49;100744.53;5048141;28;20032;-67
2022/05/07 02:14:30;;;;;;;16.02;13.90;;;;;;;15.93;85.55;100726.41;5053672;28;20028;-67
2022/05/07 02:16:56;;;;;;;15.80;14.05;;;;;;;15.98;85.83;100737.59;5067988;28;20028;-67
2022/05/07 02:19:21;;;;;;;17.63;14.77;;;;;;;15.88;85.76;100734.13;5068552;28;20067;-64
2022/05/07 02:21:47;;;;;;;17.17;13.95;;;;;;;15.99;85.71;100736.56;5068203;28;20111;-64
2022/05/07 02:24:12;;;;;;;16.00;14.23;;;;;;;15.96;85.77;100738.75;5068556;28;20101;-64
2022/05/07 02:26:38;;;;;;;17.60;13.43;;;;;;;15.95;85.75;100746.00;5068196;28;20037;-64
2022/05/07 02:29:03;;;;;;;15.68;14.07;;;;;;;15.93;85.81;100739.06;5068112;28;20474;-64
2022/05/07 02:31:29;;;;;;;16.02;14.35;;;;;;;15.93;85.95;100746.16;5069183;28;20035;-64
2022/05/07 02:33:55;;;;;;;16.45;14.65;;;;;;;15.90;86.21;100738.38;5068468;28;20042;-64
2022/05/07 02:36:20;;;;;;;15.85;14.13;;;;;;;15.92;86.21;100745.50;5056211;28;20044;-65
2022/05/07 02:38:45;;;;;;;20.25;14.18;;;;;;;15.90;86.29;100743.78;5048455;28;20032;-64
2022/05/07 02:43:55;;;;;;;17.90;13.85;;;;;;;15.80;86.10;100724.09;5067582;28;20106;-64
2022/05/07 02:46:20;;;;;;;17.33;13.27;;;;;;;15.90;86.61;100742.94;5067833;28;20117;-65
2022/05/07 02:48:46;;;;;;;16.00;13.10;;;;;;;15.89;86.33;100741.22;5067306;28;20025;-65
2022/05/07 02:51:12;;;;;;;18.27;13.05;;;;;;;15.90;86.05;100749.19;5056517;28;20490;-65
2022/05/07 02:53:38;;;;;;;16.58;14.15;;;;;;;15.89;86.01;100741.22;5047874;28;20036;-65
2022/05/07 02:56:04;;;;;;;17.02;13.98;;;;;;;15.80;86.11;100728.66;5047423;28;20104;-65
2022/05/07 02:58:30;;;;;;;16.45;13.02;;;;;;;15.83;86.18;100742.72;5048069;28;20048;-65
2022/05/07 03:00:56;;;;;;;15.88;13.30;;;;;;;15.87;86.00;100741.38;5047573;28;20094;-65
2022/05/07 03:03:21;;;;;;;14.38;12.88;;;;;;;15.87;86.19;100744.09;5047726;28;20025;-64
2022/05/07 03:05:47;;;;;;;15.68;13.00;;;;;;;15.87;86.05;100738.69;5055454;28;20572;-64
2022/05/07 03:08:13;;;;;;;15.45;12.65;;;;;;;15.88;85.89;100743.09;5065836;28;20081;-64
2022/05/07 03:10:39;;;;;;;13.90;12.20;;;;;;;15.88;85.62;100748.53;5093809;28;20059;-64
2022/05/07 03:13:04;;;;;;;17.77;13.15;;;;;;;15.87;85.46;100735.97;5058922;28;20112;-64
2022/05/07 03:15:30;;;;;;;15.02;13.43;;;;;;;15.88;85.42;100739.53;5047636;28;20029;-64
2022/05/07 03:17:55;;;;;;;16.40;14.13;;;;;;;15.89;85.49;100739.38;5046823;28;20044;-63
2022/05/07 03:20:21;;;;;;;17.55;13.77;;;;;;;15.82;85.61;100727.50;5046704;28;20051;-64
2022/05/07 03:22:46;;;;;;;19.67;14.63;;;;;;;15.88;85.66;100748.53;5046318;28;20086;-64
2022/05/07 03:25:12;;;;;;;18.23;13.60;;;;;;;15.86;85.77;100739.69;5044710;28;20502;-65
2022/05/07 03:27:38;;;;;;;17.42;14.57;;;;;;;15.85;86.28;100739.84;5075942;28;20033;-67
2022/05/07 03:30:09;;;;;;;18.27;14.48;;;;;;;15.83;86.32;100740.00;5085810;28;20028;-67
2022/05/07 03:32:35;;;;;;;16.98;13.73;;;;;;;15.84;86.25;100744.41;5073057;28;20083;-68
2022/05/07 03:35:01;;;;;;;14.85;13.32;;;;;;;15.83;86.34;100748.13;5066242;28;20029;-65
2022/05/07 03:37:27;;;;;;;17.52;14.80;;;;;;;15.83;86.41;100752.69;5066581;28;20044;-66
2022/05/07 03:39:53;;;;;;;16.90;13.80;;;;;;;15.80;86.81;100744.88;5070420;28;20032;-65
2022/05/07 03:42:20;;;;;;;16.10;13.30;;;;;;;15.74;86.89;100743.66;5066808;28;20025;-66
2022/05/07 03:44:46;;;;;;;15.35;13.13;;;;;;;15.75;86.91;100749.94;5072652;28;20119;-67
2022/05/07 03:47:12;;;;;;;15.85;13.60;;;;;;;15.74;87.19;100759.06;5064011;28;20434;-68
2022/05/07 03:49:37;;;;;;;18.08;13.77;;;;;;;15.73;87.16;100754.63;5057123;28;20108;-68
2022/05/07 03:54:47;;;;;;;20.50;13.75;;;;;;;15.69;87.49;100761.38;5067576;28;20043;-67
2022/05/07 03:57:13;;;;;;;19.33;13.80;;;;;;;15.67;87.69;100756.13;5068214;28;20435;-67
2022/05/07 03:59:39;;;;;;;19.23;13.93;;;;;;;15.63;87.51;100759.28;5052250;28;20033;-67
2022/05/07 04:02:05;;;;;;;17.02;13.55;;;;;;;15.65;87.74;100763.56;5044087;28;20140;-67
2022/05/07 04:04:32;;;;;;;17.10;12.80;;;;;;;15.64;87.89;100775.34;5048250;28;20036;-67
2022/05/07 04:06:58;;;;;;;15.98;12.32;;;;;;;15.63;88.09;100770.09;5064055;28;20021;-67
2022/05/07 04:09:24;;;;;;;16.60;13.13;;;;;;;15.54;88.39;100757.50;5046961;28;20028;-68
2022/05/07 04:11:50;;;;;;;15.07;13.13;;;;;;;15.60;87.76;100771.28;5046713;28;20078;-67
2022/05/07 04:14:15;;;;;;;14.82;13.02;;;;;;;15.62;87.67;100774.69;5054112;28;20044;-67
2022/05/07 04:16:41;;;;;;;19.60;13.63;;;;;;;15.61;87.54;100770.25;5054487;28;20029;-66
2022/05/07 04:19:06;;;;;;;15.65;12.50;;;;;;;15.54;87.42;100758.38;5045587;28;20048;-69
2022/05/07 04:21:34;;;;;;;15.68;13.13;;;;;;;15.51;87.75;100752.44;5056215;28;20020;-67
2022/05/07 04:23:59;;;;;;;16.33;13.63;;;;;;;15.62;87.65;100782.78;5047024;28;20443;-66
2022/05/07 04:26:25;;;;;;;13.45;12.15;;;;;;;15.63;87.53;100778.22;5060356;28;20094;-67
2022/05/07 04:28:50;;;;;;;15.80;14.00;;;;;;;15.65;87.56;100771.66;5052770;28;20486;-67
2022/05/07 04:31:18;;;;;;;17.98;13.43;;;;;;;15.66;88.00;100781.47;5061640;28;20045;-67
2022/05/07 04:33:45;;;;;;;14.43;12.88;;;;;;;15.67;87.61;100774.19;5048420;28;20707;-67
2022/05/07 04:36:10;;;;;;;15.05;13.23;;;;;;;15.68;87.58;100773.19;5066104;28;20486;-68
2022/05/07 04:38:36;;;;;;;18.20;14.35;;;;;;;15.70;87.71;100777.44;5060738;28;20060;-67
2022/05/07 04:41:01;;;;;;;14.10;12.57;;;;;;;15.63;86.92;100764.69;5053043;28;20097;-67
2022/05/07 04:43:26;;;;;;;14.00;11.65;;;;;;;15.71;87.07;100783.72;5054476;28;20036;-67
2022/05/07 04:45:52;;;;;;;17.35;13.65;;;;;;;15.71;87.38;100778.31;5057265;28;20031;-67
2022/05/07 04:48:17;;;;;;;15.65;12.43;;;;;;;15.67;87.12;100779.59;5055691;28;20035;-67
2022/05/07 04:50:43;;;;;;;14.63;12.73;;;;;;;15.76;86.81;100790.34;5051589;28;20059;-67
2022/05/07 04:53:08;;;;;;;16.00;13.68;;;;;;;15.77;86.58;100788.50;5044744;28;20025;-67
2022/05/07 04:55:33;;;;;;;14.52;12.75;;;;;;;15.80;86.80;100791.72;5059233;28;20037;-67
2022/05/07 04:57:59;;;;;;;14.20;12.77;;;;;;;15.80;86.74;100791.72;5066212;28;20021;-67
2022/05/07 05:00:24;;;;;;;15.38;13.02;;;;;;;15.85;86.85;100796.66;5066704;28;20028;-68
2022/05/07 05:02:50;;;;;;;17.40;13.98;;;;;;;15.82;86.59;100783.44;5066244;28;20028;-68
2022/05/07 05:05:15;;;;;;;17.08;13.70;;;;;;;15.84;86.41;100779.56;5066642;28;20021;-67
2022/05/07 05:07:41;;;;;;;14.80;13.20;;;;;;;15.84;86.20;100781.44;5066419;28;20099;-67
2022/05/07 05:10:07;;;;;;;15.50;13.18;;;;;;;15.96;86.24;100792.88;5058729;28;20092;-68
2022/05/07 05:12:32;;;;;;;14.57;12.15;;;;;;;15.98;85.88;100796.25;5055846;28;20033;-67
2022/05/07 05:15:08;;;;;;;15.45;12.73;;;;;;;16.02;85.89;100790.38;5063838;28;20123;-65
2022/05/07 05:17:34;;;;;;;13.40;11.80;;;;;;;15.99;86.05;100781.72;5064969;28;20024;-64
2022/05/07 05:20:01;;;;;;;15.68;12.85;;;;;;;16.10;85.75;100800.41;5061764;28;20114;-64
2022/05/07 05:22:26;;;;;;;14.15;12.65;;;;;;;16.14;85.46;100801.78;5046215;28;20083;-64
2022/05/07 05:24:52;;;;;;;16.45;12.25;;;;;;;16.15;85.02;100803.50;5047375;28;20076;-67
2022/05/07 05:27:18;;;;;;;13.48;12.15;;;;;;;16.11;84.97;100793.97;5065635;28;20025;-68
2022/05/07 05:29:43;;;;;;;17.02;13.00;;;;;;;16.22;85.98;100813.50;5046561;28;20047;-64
2022/05/07 05:32:09;;;;;;;14.60;12.98;;;;;;;16.27;84.79;100807.63;5049253;28;20478;-65
2022/05/07 05:34:34;;;;;;;14.95;12.80;;;;;;;16.32;84.63;100813.44;5065102;28;20039;-65
2022/05/07 05:37:00;;;;;;;16.70;12.93;;;;;;;16.34;84.46;100809.53;5064988;28;20397;-65
2022/05/07 05:39:25;;;;;;;15.05;12.60;;;;;;;16.42;84.02;100811.44;5064984;28;20019;-65
2022/05/07 05:41:51;;;;;;;14.55;12.75;;;;;;;16.40;84.42;100794.50;5049922;28;20025;-67
2022/05/07 05:44:16;;;;;;;19.90;12.50;;;;;;;16.52;84.75;100815.78;5063926;28;20044;-68
2022/05/07 05:46:42;;;;;;;17.00;13.65;;;;;;;16.58;85.01;100817.00;5069294;28;20028;-68
2022/05/07 05:49:08;;;;;;;17.80;14.13;;;;;;;16.64;85.17;100821.78;5069085;28;20055;-67
2022/05/07 05:51:33;;;;;;;13.90;12.50;;;;;;;16.67;84.50;100811.44;5067598;28;20040;-67
2022/05/07 05:53:59;;;;;;;15.88;12.07;;;;;;;16.75;83.52;100816.06;5060828;28;20039;-67
2022/05/07 05:56:24;;;;;;;14.30;12.43;;;;;;;16.73;82.17;100808.09;5049073;28;20053;-68
2022/05/07 05:58:58;;;;;;;15.63;12.43;;;;;;;16.80;82.56;100802.91;5048295;28;20470;-68
2022/05/07 06:01:24;;;;;;;;;;;;;;;16.87;81.81;100812.06;5050356;28;20364;-68
2022/05/07 06:03:50;;;;;;;12.48;10.43;;;;;;;16.93;81.58;100819.53;5051133;28;19913;-68
2022/05/07 06:06:15;;;;;;;16.35;11.82;;;;;;;16.97;81.23;100821.78;5051370;28;20032;-67
2022/05/07 06:08:42;;;;;;;15.25;11.23;;;;;;;16.99;80.94;100811.59;5065421;28;20028;-68
2022/05/07 06:11:07;;;;;;;15.73;11.60;;;;;;;17.06;80.69;100820.75;5070906;28;20062;-67
2022/05/07 06:13:33;;;;;;;14.48;11.00;;;;;;;17.03;80.32;100804.81;5071053;28;20439;-67
2022/05/07 06:15:58;;;;;;;13.90;11.77;;;;;;;17.11;80.40;100814.84;5070903;28;20093;-67
2022/05/07 06:18:25;;;;;;;15.57;10.98;;;;;;;17.14;80.23;100820.81;5070666;28;20466;-67
2022/05/07 06:20:51;;;;;;;12.13;10.30;;;;;;;17.23;80.15;100827.09;5071269;28;20111;-68
2022/05/07 06:23:16;;;;;;;14.07;11.00;;;;;;;17.29;80.19;100816.44;5060371;28;20430;-68
2022/05/07 06:28:26;;;;;;;14.10;10.98;;;;;;;17.40;79.65;100816.13;5049388;28;20115;-68
2022/05/07 06:30:52;;;;;;;12.23;9.10;;;;;;;17.48;79.14;100816.16;5050629;28;20506;-68
2022/05/07 06:33:18;;;;;;;16.88;9.57;;;;;;;17.54;78.04;100811.97;5060914;28;20036;-67
2022/05/07 06:35:45;;;;;;;12.63;9.40;;;;;;;17.61;77.60;100815.72;5050577;28;20028;-68
2022/05/07 06:38:11;;;;;;;10.43;9.32;;;;;;;17.67;77.45;100823.19;5052092;28;20036;-68
2022/05/07 06:40:38;;;;;;;12.00;8.95;;;;;;;17.73;76.67;100826.06;5070262;28;20052;-65
2022/05/07 06:43:04;;;;;;;11.43;9.00;;;;;;;17.79;76.13;100822.66;5070144;28;20028;-65
2022/05/07 06:45:30;;;;;;;10.57;8.73;;;;;;;17.82;75.64;100806.06;5069701;28;20029;-65
2022/05/07 06:47:55;;;;;;;10.13;8.23;;;;;;;17.90;74.85;100818.78;5070397;28;20044;-65
2022/05/07 06:50:20;;;;;;;9.57;7.82;;;;;;;17.98;72.38;100824.19;5067316;28;20031;-65
2022/05/07 06:52:46;;;;;;;11.50;7.57;;;;;;;18.02;71.85;100818.25;5050018;28;20021;-65
2022/05/07 06:55:16;;;;;;;12.13;7.60;;;;;;;18.05;70.68;100815.22;5045692;28;20044;-65
2022/05/07 06:57:43;;;;;;;11.15;7.55;;;;;;;18.15;70.05;100819.63;5058741;28;20097;-65
2022/05/07 07:00:10;;;;;;;11.15;6.22;;;;;;;18.23;68.41;100823.16;5067637;28;20097;-65
2022/05/07 07:02:37;;;;;;;9.07;6.10;;;;;;;18.28;65.74;100815.34;5063491;28;20036;-65
2022/05/07 07:05:03;;;;;;;7.95;5.90;;;;;;;18.39;63.43;100834.06;5068106;28;20028;-65
2022/05/07 07:07:29;;;;;;;11.85;5.55;;;;;;;18.45;61.58;100821.63;5067920;28;20028;-65
2022/05/07 07:09:55;;;;;;;5.85;5.07;;;;;;;18.48;61.55;100819.44;5067636;28;20033;-65
2022/05/07 07:12:20;;;;;;;9.13;5.03;;;;;;;18.47;61.05;100815.00;5068297;28;20033;-66
2022/05/07 07:14:49;;;;;;;8.32;5.53;;;;;;;18.60;61.16;100823.47;5054462;28;20127;-65
2022/05/07 07:17:17;;;;;;;8.65;4.70;;;;;;;18.61;60.43;100814.31;5042921;28;20025;-65
2022/05/07 07:19:45;;;;;;;12.25;5.30;;;;;;;18.55;59.55;100798.69;5038604;28;20515;-65
2022/05/07 07:22:12;;;;;;;5.38;4.25;;;;;;;18.76;59.27;100817.16;5042809;28;20659;-65
2022/05/07 07:24:38;;;;;;;7.30;4.63;;;;;;;18.85;57.75;100821.50;5052346;28;20060;-65
2022/05/07 07:27:04;;;;;;;8.38;4.80;;;;;;;18.84;57.48;100822.53;5067286;28;20032;-65
2022/05/07 07:29:30;;;;;;;8.27;4.32;;;;;;;18.94;57.53;100825.91;5062195;28;20048;-65
2022/05/07 07:31:55;;;;;;;7.00;4.82;;;;;;;19.00;57.26;100833.34;5063603;28;20075;-65
2022/05/07 07:34:21;;;;;;;6.38;4.72;;;;;;;19.03;57.22;100828.44;5048962;28;20536;-65
2022/05/07 07:36:50;;;;;;;6.65;4.25;;;;;;;19.11;57.27;100827.53;5048922;28;21254;-65
2022/05/07 07:39:16;;;;;;;10.35;4.68;;;;;;;19.15;56.44;100827.00;5048651;28;20052;-66
2022/05/07 07:41:43;;;;;;;9.73;5.43;;;;;;;19.10;55.65;100813.09;5048416;28;20501;-65
2022/05/07 07:44:08;;;;;;;6.00;4.20;;;;;;;19.17;55.84;100810.50;5047272;28;20086;-66
2022/05/07 07:49:18;;;;;;;9.57;4.75;;;;;;;19.34;55.65;100823.88;5048617;28;20079;-65
2022/05/07 07:51:44;;;;;;;7.78;4.70;;;;;;;19.39;55.15;100826.06;5040188;28;20041;-65
2022/05/07 07:54:09;;;;;;;5.43;3.92;;;;;;;19.44;55.08;100810.88;5039954;28;20033;-65
2022/05/07 07:56:34;;;;;;;8.15;4.18;;;;;;;19.53;54.76;100819.84;5051673;28;20063;-65
2022/05/07 07:59:00;;;;;;;5.97;4.00;;;;;;;19.60;54.60;100823.53;5047941;28;20079;-68
2022/05/07 08:01:25;;;;;;;6.70;4.13;;;;;;;19.67;54.26;100814.47;5063658;28;20466;-68
2022/05/07 08:03:51;;;;;;;8.98;4.70;;;;;;;19.59;54.63;100805.50;5047757;28;20040;-70
2022/05/07 08:06:16;;;;;;;7.78;4.35;;;;;;;19.76;53.86;100821.56;5046927;28;20029;-70
2022/05/07 08:11:41;;;;;;;6.10;3.83;;;;;;;19.89;52.82;100818.22;5048410;28;20564;-70
2022/05/07 08:14:13;;;;;;;7.00;4.28;;;;;;;19.98;52.27;100822.56;5037385;28;20064;-69
2022/05/07 08:16:39;;;;;;;8.05;4.20;;;;;;;20.05;52.46;100821.66;5048146;28;20025;-70
2022/05/07 08:19:05;;;;;;;8.15;3.97;;;;;;;20.12;52.58;100822.66;5055156;28;20039;-70
2022/05/07 08:21:31;;;;;;;8.48;4.20;;;;;;;20.22;52.43;100816.97;5067592;28;20115;-70
2022/05/07 08:23:56;;;;;;;7.10;3.55;;;;;;;20.40;52.17;100828.34;5051722;28;20128;-70
2022/05/07 08:26:22;;;;;;;7.93;3.45;;;;;;;20.43;51.34;100810.78;5048056;28;20039;-70
2022/05/07 08:28:47;;;;;;;7.20;4.40;;;;;;;20.65;50.95;100823.50;5047051;28;20021;-70
2022/05/07 08:31:13;;;;;;;6.03;3.60;;;;;;;20.81;49.53;100823.31;5047759;28;20146;-70
2022/05/07 08:33:43;;;;;;;7.25;3.72;;;;;;;20.92;49.31;100815.50;5047609;28;20037;-70
2022/05/07 08:36:10;;;;;;;8.80;3.20;;;;;;;21.12;48.26;100834.91;5065813;28;20012;-70
2022/05/07 08:38:36;;;;;;;6.88;3.33;;;;;;;21.30;48.00;100830.72;5047503;28;20653;-69
2022/05/07 08:41:02;;;;;;;7.47;3.53;;;;;;;21.41;47.30;100827.50;5050342;28;20032;-68
2022/05/07 08:43:36;;;;;;;7.47;3.30;;;;;;;21.47;46.92;100807.63;5052298;28;20471;-69
2022/05/07 08:46:08;;;;;;;7.50;3.30;;;;;;;21.69;47.11;100820.25;5059826;28;20549;-69
2022/05/07 08:48:33;;;;;;;4.63;3.03;;;;;;;21.88;46.52;100821.53;5056713;28;20021;-68
2022/05/07 08:51:00;;;;;;;4.70;3.10;;;;;;;22.04;46.02;100824.84;5064866;28;20025;-69
2022/05/07 08:53:25;;;;;;;6.72;3.17;;;;;;;22.19;45.35;100827.50;5067035;28;20096;-69
2022/05/07 08:55:54;;;;;;;6.13;3.72;;;;;;;22.23;44.85;100807.78;5052788;28;20115;-69
2022/05/07 08:58:20;;;;;;;8.93;3.35;;;;;;;22.38;44.83;100821.34;5046046;28;20104;-69
2022/05/07 09:00:45;;;;;;;4.55;3.25;;;;;;;22.51;44.50;100826.97;5055430;28;20564;-69
2022/05/07 09:03:15;;;;;;;6.78;3.00;;;;;;;22.56;44.13;100824.44;5052317;28;20036;-69
2022/05/07 09:05:41;;;;;;;7.47;3.33;;;;;;;22.70;43.95;100826.22;5059681;28;20402;-69
2022/05/07 09:08:07;;;;;;;4.95;3.22;;;;;;;22.82;43.81;100832.00;5063245;28;20086;-69
2022/05/07 09:10:35;;;;;;;6.07;3.63;;;;;;;22.89;42.77;100833.72;5047094;28;20083;-69
2022/05/07 09:13:14;;;;;;;10.57;3.67;;;;;;;22.90;42.75;100821.75;5049725;28;20104;-69
2022/05/07 09:15:56;;;;;;;3.78;2.85;;;;;;;22.99;42.75;100825.16;5068436;28;20354;-69
2022/05/07 09:18:23;;;;;;;7.88;3.30;;;;;;;22.91;42.27;100804.28;5068662;28;20182;-69
2022/05/07 09:21:26;;;;;;;8.20;3.10;;;;;;;23.03;42.38;100827.28;5050928;28;20044;-69
2022/05/07 09:24:06;;;;;;;5.47;3.00;;;;;;;23.00;41.75;100822.22;5062632;28;20040;-69
2022/05/07 09:26:33;;;;;;;5.80;3.10;;;;;;;23.03;42.11;100818.22;5063134;28;20036;-69
2022/05/07 09:29:03;;;;;;;8.73;3.30;;;;;;;23.07;41.55;100823.09;5070905;28;20524;-69
2022/05/07 09:31:33;;;;;;;5.43;3.38;;;;;;;23.10;41.21;100821.81;5070818;28;20543;-69
2022/05/07 09:36:46;;;;;;;4.15;2.72;;;;;;;23.23;41.51;100816.44;5054766;28;20040;-70
2022/05/07 09:39:14;;;;;;;5.03;3.40;;;;;;;23.25;41.64;100812.44;5059585;28;20043;-70
2022/05/07 09:41:43;;;;;;;5.15;3.13;;;;;;;23.31;41.58;100814.38;5058900;28;20099;-69
2022/05/07 09:44:10;;;;;;;5.50;3.00;;;;;;;23.31;41.24;100806.16;5061491;28;20082;-69
2022/05/07 09:46:37;;;;;;;5.60;2.70;;;;;;;23.35;40.33;100809.34;5070924;28;20032;-69
2022/05/07 09:49:05;;;;;;;3.45;3.03;;;;;;;23.34;40.66;100811.22;5071018;28;20029;-69
2022/05/07 09:51:31;;;;;;;7.28;2.90;;;;;;;23.28;40.87;100809.31;5068842;28;20055;-70
2022/05/07 09:59:26;;;;;;;5.47;3.10;;;;;;;23.24;40.63;100797.06;5067354;28;20133;-71
2022/05/07 10:02:22;;;;;;;4.50;3.00;;;;;;;23.29;40.65;100802.78;5059127;28;20100;-71
2022/05/07 10:05:21;;;;;;;5.35;2.47;;;;;;;23.29;40.76;100801.94;5068877;28;20156;-70
2022/05/07 10:08:05;;;;;;;7.60;3.10;;;;;;;23.27;40.94;100804.88;5070363;28;20364;-70
2022/05/07 10:10:36;;;;;;;6.63;2.90;;;;;;;23.19;40.60;100795.97;5066999;28;20036;-70
2022/05/07 10:13:05;;;;;;;11.45;3.80;;;;;;;23.08;40.49;100786.44;5052890;28;20090;-70
2022/05/07 10:15:31;;;;;;;8.50;3.38;;;;;;;23.08;41.17;100791.09;5062207;28;20035;-70
2022/05/07 10:18:02;;;;;;;7.60;3.17;;;;;;;23.09;41.19;100793.63;5070006;28;20020;-70
2022/05/07 10:20:43;;;;;;;4.32;2.83;;;;;;;23.13;41.25;100788.56;5056714;28;20042;-70
2022/05/07 10:23:10;;;;;;;6.80;3.40;;;;;;;23.13;40.73;100783.97;5064479;28;20036;-70
2022/05/07 10:25:37;;;;;;;5.22;3.08;;;;;;;23.08;40.73;100782.88;5068856;28;20041;-70
2022/05/07 10:28:10;;;;;;;10.20;2.80;;;;;;;23.03;41.42;100775.28;5061906;28;20497;-70
2022/05/07 10:30:53;;;;;;;8.48;3.40;;;;;;;23.03;41.36;100777.16;5049708;28;20817;-70
2022/05/07 10:33:19;;;;;;;7.53;3.25;;;;;;;22.97;41.85;100769.78;5053806;28;20059;-69
2022/05/07 10:35:51;;;;;;;8.00;3.03;;;;;;;23.08;42.08;100775.50;5048895;28;20499;-70
2022/05/07 10:38:23;;;;;;;6.18;2.70;;;;;;;23.12;42.09;100782.25;5049330;28;20438;-71
2022/05/07 10:41:07;;;;;;;5.88;2.78;;;;;;;23.13;41.75;100773.00;5061191;28;20521;-71
2022/05/07 10:43:46;;;;;;;6.05;2.88;;;;;;;22.84;41.87;100718.59;5046135;28;20047;-70
2022/05/07 10:46:16;;;;;;;5.03;2.63;;;;;;;23.14;42.00;100755.53;5061207;28;20119;-69
2022/05/07 10:49:01;;;;;;;6.22;3.17;;;;;;;23.24;41.75;100769.69;5067628;28;20048;-70
2022/05/07 10:51:31;;;;;;;3.53;2.50;;;;;;;23.29;41.56;100767.22;5046449;28;20045;-71
2022/05/07 10:54:03;;;;;;;6.05;2.80;;;;;;;23.32;41.44;100757.72;5049379;28;20119;-70
2022/05/07 10:56:34;;;;;;;2.90;2.53;;;;;;;23.30;41.00;100755.19;5053755;28;20049;-70
2022/05/07 10:59:01;;;;;;;4.13;2.55;;;;;;;23.35;40.91;100766.38;5048640;28;20522;-70
2022/05/07 11:01:28;;;;;;;5.57;2.70;;;;;;;23.34;40.97;100761.94;5053650;28;20062;-70
2022/05/07 11:04:05;;;;;;;6.97;3.05;;;;;;;23.37;40.87;100764.28;5048407;28;20159;-70
2022/05/07 11:06:32;;;;;;;5.72;2.53;;;;;;;23.32;40.58;100753.09;5053957;28;20056;-70
2022/05/07 11:08:58;;;;;;;8.43;3.35;;;;;;;23.39;40.51;100758.59;5057546;28;20025;-71
2022/05/07 11:11:24;;;;;;;6.03;2.80;;;;;;;23.41;40.35;100757.31;5062573;28;20576;-70
2022/05/07 11:13:50;;;;;;;4.80;2.90;;;;;;;23.39;40.35;100750.38;5053992;28;20032;-70
2022/05/07 11:16:19;;;;;;;6.38;3.35;;;;;;;23.42;40.41;100755.44;5062014;28;20041;-71
2022/05/07 11:18:52;;;;;;;5.57;3.25;;;;;;;23.41;40.20;100749.09;5050821;28;20033;-72
2022/05/07 11:21:24;;;;;;;10.45;3.05;;;;;;;23.40;39.92;100747.44;5058799;28;20375;-69
2022/05/07 11:23:58;;;;;;;8.48;3.05;;;;;;;23.42;40.13;100748.06;5059569;28;20047;-66
2022/05/07 11:26:24;;;;;;;5.72;2.83;;;;;;;23.43;40.20;100738.81;5068047;28;20093;-67
2022/05/07 11:28:51;;;;;;;7.30;3.28;;;;;;;;;;5067410;28;20044;-66
2022/05/07 11:31:28;;;;;;;6.43;3.15;;;;;;;;;;5052684;28;20025;-67
2022/05/07 11:34:07;;;;;;;5.75;3.33;;;;;;;23.46;40.08;100734.81;5064251;28;20040;-66
2022/05/07 11:36:33;;;;;;;5.40;2.90;;;;;;;23.45;39.66;100738.59;5067293;28;20031;-67
2022/05/07 11:39:04;;;;;;;4.18;2.70;;;;;;;23.45;39.47;100730.38;5060619;28;20047;-67
2022/05/07 11:41:30;;;;;;;6.60;2.42;;;;;;;23.45;39.47;100736.72;5065099;28;20020;-66
2022/05/07 11:46:49;;;;;;;;;;;;;;;23.51;39.17;100732.28;5057280;28;20087;-66
2022/05/07 11:49:14;;;;;;;4.82;2.63;;;;;;;23.54;39.34;100731.88;5060472;28;19942;-67
2022/05/07 11:51:40;;;;;;;4.90;2.53;;;;;;;23.54;39.42;100719.00;5047316;28;20125;-66